Potsdam, New York
Current Conditions -  °F | °C
As of 12:53 PM on Saturday 25 Oct 2014 (Local Time) from KMSS Reporting Station
Clear Clear  
Wind Chill: 60°   Ceiling: Unl
Heat Index: 60°   Visibility: 10mi
Dew Point: 47°   Wind: 18mph
Humidity: 62%   Direction: 210°SSW
Pressure: 29.59"   Gusts: 25mph
Location:  44.67°N, 74.98°W
Report Text: KMSS 251653Z AUTO 21016G22KT 10SM CLR 16/08 A2959 RMK AO2 SLP021 T01560083
Loading
Personal Weather Stations






























Interactive Weather Map New forecast layout! Learn more

10-Day Weather Forecast

Advertisements
Track Severe Weather on mobile